createdAt,value
2022-08-01T00:01:34.094Z,8.80
2022-08-01T00:04:01.544Z,9.85
2022-08-01T00:06:28.900Z,8.43
2022-08-01T00:08:57.182Z,10.65
2022-08-01T00:11:24.254Z,7.95
2022-08-01T00:13:51.301Z,10.73
2022-08-01T00:16:18.271Z,9.38
2022-08-01T00:18:45.427Z,9.63
2022-08-01T00:21:12.403Z,9.90
2022-08-01T00:23:39.304Z,8.57
2022-08-01T00:26:06.400Z,8.40
2022-08-01T00:28:34.723Z,8.95
2022-08-01T00:31:02.297Z,7.45
2022-08-01T00:33:33.168Z,8.02
2022-08-01T00:36:05.485Z,6.82
2022-08-01T00:38:34.135Z,7.72
2022-08-01T00:41:01.218Z,9.20
2022-08-01T00:43:28.342Z,7.68
2022-08-01T00:45:55.335Z,6.82
2022-08-01T00:48:24.664Z,7.53
2022-08-01T00:50:51.680Z,9.73
2022-08-01T00:53:19.201Z,10.05
2022-08-01T00:55:46.585Z,8.48
2022-08-01T00:58:13.838Z,7.32
2022-08-01T01:00:52.574Z,6.30
2022-08-01T01:03:58.145Z,7.97
2022-08-01T01:06:28.180Z,9.93
2022-08-01T01:09:18.313Z,7.93
2022-08-01T01:12:00.151Z,7.72
2022-08-01T01:14:51.988Z,13.63
2022-08-01T01:17:31.192Z,9.20
2022-08-01T01:20:14.480Z,9.68
2022-08-01T01:22:50.245Z,9.05
2022-08-01T01:25:39.089Z,10.57
2022-08-01T01:28:31.103Z,9.90
2022-08-01T01:30:59.904Z,10.45
2022-08-01T01:33:35.411Z,11.40
2022-08-01T01:36:15.824Z,11.95
2022-08-01T01:38:47.223Z,11.40
2022-08-01T01:41:18.119Z,14.15
2022-08-01T01:43:47.513Z,10.75
2022-08-01T01:46:18.275Z,9.55
2022-08-01T01:48:47.960Z,10.48
2022-08-01T01:51:16.640Z,10.20
2022-08-01T01:53:45.443Z,11.35
2022-08-01T01:56:16.263Z,7.93
2022-08-01T02:02:36.696Z,5.45
2022-08-01T02:05:04.349Z,6.07
2022-08-01T02:07:36.561Z,5.85
2022-08-01T02:10:06.324Z,6.30
2022-08-01T02:12:37.728Z,4.57
2022-08-01T02:15:06.625Z,6.15
2022-08-01T02:17:37.680Z,5.78
2022-08-01T02:20:05.237Z,5.63
2022-08-01T02:22:37.085Z,6.10
2022-08-01T02:25:12.669Z,5.78
2022-08-01T02:27:57.129Z,5.85
2022-08-01T02:30:29.756Z,7.20
2022-08-01T02:33:15.454Z,6.25
2022-08-01T02:36:31.300Z,7.30
2022-08-01T02:38:43.006Z,7.20
2022-08-01T02:41:20.309Z,8.65
2022-08-01T02:43:53.548Z,7.03
2022-08-01T02:46:40.832Z,7.75
2022-08-01T02:49:15.127Z,7.25
2022-08-01T02:51:44.956Z,7.72
2022-08-01T02:54:13.546Z,7.43
2022-08-01T02:56:44.005Z,8.25
2022-08-01T02:59:22.077Z,7.32
2022-08-01T03:01:51.108Z,7.22
2022-08-01T03:04:20.731Z,6.70
2022-08-01T03:06:49.437Z,7.13
2022-08-01T03:09:17.817Z,6.78
2022-08-01T03:11:47.851Z,6.95
2022-08-01T03:14:20.143Z,5.47
2022-08-01T03:16:48.454Z,7.35
2022-08-01T03:19:19.522Z,7.85
2022-08-01T03:21:48.248Z,5.90
2022-08-01T03:24:17.893Z,7.50
2022-08-01T03:26:45.887Z,4.72
2022-08-01T03:29:22.967Z,4.88
2022-08-01T03:31:50.732Z,5.05
2022-08-01T03:34:18.673Z,4.90
2022-08-01T03:37:12.376Z,4.97
2022-08-01T03:39:49.886Z,5.25
2022-08-01T03:42:21.956Z,5.53
2022-08-01T03:44:55.797Z,5.28
2022-08-01T03:47:28.720Z,5.65
2022-08-01T03:50:00.279Z,4.80
2022-08-01T03:52:32.310Z,5.15
2022-08-01T03:55:08.124Z,4.97
2022-08-01T03:57:41.810Z,4.90
2022-08-01T04:00:19.796Z,5.68
2022-08-01T04:02:51.631Z,5.95
2022-08-01T04:05:19.848Z,9.07
2022-08-01T04:07:49.003Z,9.95
2022-08-01T04:10:17.344Z,6.82
2022-08-01T04:12:44.393Z,5.63
2022-08-01T04:15:11.661Z,7.38
2022-08-01T04:17:44.994Z,9.18
2022-08-01T04:20:12.455Z,7.05
2022-08-01T04:22:46.744Z,7.55
2022-08-01T04:25:38.947Z,7.05
2022-08-01T04:28:08.632Z,6.40
2022-08-01T04:30:41.120Z,7.18
2022-08-01T04:33:14.034Z,10.23
2022-08-01T04:36:01.417Z,3.60
2022-08-01T04:38:33.435Z,3.45
2022-08-01T04:41:15.598Z,3.85
2022-08-01T04:43:46.914Z,2.20
2022-08-01T04:46:15.656Z,2.50
2022-08-01T04:52:07.185Z,2.40
2022-08-01T04:54:40.121Z,2.85
2022-08-01T04:57:11.989Z,2.45
2022-08-01T04:59:42.921Z,3.63
2022-08-01T05:02:18.914Z,3.33
2022-08-01T05:04:47.154Z,4.93
2022-08-01T05:07:14.889Z,4.00
2022-08-01T05:09:48.625Z,4.97
2022-08-01T05:12:28.362Z,4.05
2022-08-01T05:14:58.458Z,5.38
2022-08-01T05:17:27.935Z,3.83
2022-08-01T05:20:08.496Z,3.58
2022-08-01T05:22:39.135Z,6.00
2022-08-01T05:25:07.145Z,5.07
2022-08-01T05:27:38.980Z,4.30
2022-08-01T05:30:12.295Z,7.28
2022-08-01T05:32:48.812Z,5.68
2022-08-01T05:35:17.218Z,5.20
2022-08-01T05:37:47.627Z,7.82
2022-08-01T05:40:19.836Z,5.30
2022-08-01T05:42:47.405Z,4.53
2022-08-01T05:45:14.448Z,5.82
2022-08-01T05:47:44.458Z,5.03
2022-08-01T05:50:12.592Z,4.88
2022-08-01T05:52:43.486Z,4.63
2022-08-01T05:55:18.256Z,5.28
2022-08-01T05:57:54.162Z,4.50
2022-08-01T06:00:34.044Z,5.63
2022-08-01T06:03:05.806Z,7.13
2022-08-01T06:05:45.136Z,4.25
2022-08-01T06:08:20.778Z,3.95
2022-08-01T06:11:08.892Z,6.28
2022-08-01T06:13:50.480Z,6.65
2022-08-01T06:16:21.555Z,4.82
2022-08-01T06:18:56.284Z,5.10
2022-08-01T06:21:33.525Z,6.00
2022-08-01T06:24:19.313Z,5.13
2022-08-01T06:26:58.986Z,4.57
2022-08-01T06:29:28.970Z,7.93
2022-08-01T06:32:01.241Z,6.70
2022-08-01T06:34:30.902Z,4.25
2022-08-01T06:37:00.589Z,6.72
2022-08-01T06:39:46.440Z,5.22
2022-08-01T06:42:13.527Z,5.90
2022-08-01T06:44:46.952Z,5.00
2022-08-01T06:47:21.062Z,6.38
2022-08-01T06:49:48.772Z,4.00
2022-08-01T06:52:23.497Z,4.47
2022-08-01T06:54:53.432Z,4.90
2022-08-01T06:57:21.585Z,5.22
2022-08-01T06:59:54.507Z,4.70
2022-08-01T07:02:24.366Z,4.32
2022-08-01T07:07:35.006Z,4.63
2022-08-01T07:10:13.098Z,4.88
2022-08-01T07:12:44.641Z,5.03
2022-08-01T07:15:14.166Z,5.72
2022-08-01T07:17:49.784Z,3.75
2022-08-01T07:20:18.087Z,4.68
2022-08-01T07:22:56.426Z,3.15
2022-08-01T07:25:27.420Z,3.45
2022-08-01T07:27:57.656Z,8.60
2022-08-01T07:30:32.235Z,7.13
2022-08-01T07:33:48.842Z,4.07
2022-08-01T07:36:27.936Z,5.20
2022-08-01T07:38:56.786Z,4.22
2022-08-01T07:41:53.290Z,5.10
2022-08-01T07:44:33.596Z,4.60
2022-08-01T07:47:00.866Z,4.85
2022-08-01T07:49:28.728Z,5.20
2022-08-01T07:52:03.628Z,10.38
2022-08-01T07:54:49.250Z,6.40
2022-08-01T07:57:26.098Z,9.20
2022-08-01T08:00:14.969Z,15.07
2022-08-01T08:02:59.443Z,7.90
2022-08-01T08:05:58.320Z,10.40
2022-08-01T08:08:31.669Z,11.98
2022-08-01T08:11:09.329Z,10.85
2022-08-01T08:13:48.530Z,10.85
2022-08-01T08:16:31.006Z,12.02
2022-08-01T08:19:03.135Z,7.93
2022-08-01T08:21:33.851Z,7.68
2022-08-01T08:27:10.090Z,13.00
2022-08-01T08:29:45.324Z,8.70
2022-08-01T08:32:20.223Z,12.82
2022-08-01T08:34:47.967Z,6.55
2022-08-01T08:37:49.112Z,9.73
2022-08-01T08:40:16.823Z,11.80
2022-08-01T08:42:44.794Z,10.18
2022-08-01T08:45:12.183Z,6.55
2022-08-01T08:47:40.493Z,9.10
2022-08-01T08:50:07.954Z,9.50
2022-08-01T08:52:38.884Z,12.85
2022-08-01T08:55:06.751Z,9.85
2022-08-01T08:57:34.159Z,11.50
2022-08-01T09:00:01.565Z,9.57
2022-08-01T09:02:28.364Z,12.80
2022-08-01T09:04:55.400Z,9.40
2022-08-01T09:07:23.850Z,10.55
2022-08-01T09:09:51.422Z,9.32
2022-08-01T09:12:19.513Z,8.88
2022-08-01T09:14:48.137Z,12.82
2022-08-01T09:17:15.039Z,8.77
2022-08-01T09:19:49.795Z,8.05
2022-08-01T09:22:23.843Z,11.95
2022-08-01T09:25:09.864Z,13.35
2022-08-01T09:27:44.473Z,10.23
2022-08-01T09:30:19.153Z,9.63
2022-08-01T09:32:55.546Z,9.38
2022-08-01T09:35:36.348Z,11.00
2022-08-01T09:38:22.625Z,6.53
2022-08-01T09:40:51.003Z,5.95
2022-08-01T09:43:19.420Z,7.10
2022-08-01T09:45:50.443Z,6.50
2022-08-01T09:48:17.866Z,8.77
2022-08-01T09:50:46.200Z,6.63
2022-08-01T09:53:29.905Z,11.30
2022-08-01T09:56:13.129Z,7.32
2022-08-01T09:59:02.319Z,4.00
2022-08-01T10:01:50.302Z,5.20
2022-08-01T10:04:21.779Z,3.30
2022-08-01T10:06:53.611Z,4.65
2022-08-01T10:09:40.020Z,6.32
2022-08-01T10:12:08.689Z,6.88
2022-08-01T10:14:38.799Z,7.15
2022-08-01T10:17:19.415Z,5.47
2022-08-01T10:19:47.845Z,6.55
2022-08-01T10:22:18.549Z,8.02
2022-08-01T10:24:48.229Z,4.93
2022-08-01T10:27:24.482Z,7.40
2022-08-01T10:30:14.029Z,7.95
2022-08-01T10:32:50.482Z,4.80
2022-08-01T10:35:45.661Z,7.53
2022-08-01T10:38:06.250Z,5.57
2022-08-01T10:40:38.481Z,5.47
2022-08-01T10:43:07.619Z,7.45
2022-08-01T10:45:35.064Z,6.05
2022-08-01T10:48:25.133Z,4.80
2022-08-01T10:50:55.354Z,5.13
2022-08-01T10:53:31.267Z,3.75
2022-08-01T10:56:15.129Z,6.53
2022-08-01T10:58:44.802Z,4.90
2022-08-01T11:01:26.292Z,9.95
2022-08-01T11:04:02.716Z,6.45
2022-08-01T11:06:33.713Z,7.75
2022-08-01T11:09:05.990Z,7.35
2022-08-01T11:11:37.625Z,10.40
2022-08-01T11:14:10.518Z,8.27
2022-08-01T11:16:39.439Z,6.97
2022-08-01T11:19:09.463Z,6.45
2022-08-01T11:21:59.232Z,9.75
2022-08-01T11:24:46.787Z,9.30
2022-08-01T11:27:18.872Z,7.07
2022-08-01T11:30:09.347Z,8.00
2022-08-01T11:33:10.595Z,8.48
2022-08-01T11:35:59.228Z,10.27
2022-08-01T11:38:29.194Z,5.53
2022-08-01T11:41:12.591Z,6.90
2022-08-01T11:44:05.695Z,7.75
2022-08-01T11:47:13.613Z,5.97
2022-08-01T11:49:49.112Z,6.78
2022-08-01T11:52:32.801Z,7.45
2022-08-01T11:55:11.443Z,6.40
2022-08-01T11:57:39.439Z,4.07
2022-08-01T12:00:18.129Z,6.68
2022-08-01T12:02:47.148Z,5.57
2022-08-01T12:05:19.185Z,6.57
2022-08-01T12:07:50.175Z,6.45
2022-08-01T12:10:19.502Z,6.60
2022-08-01T12:12:49.357Z,6.90
2022-08-01T12:15:17.119Z,12.13
2022-08-01T12:17:59.128Z,7.60
2022-08-01T12:20:31.608Z,5.70
2022-08-01T12:23:06.665Z,10.45
2022-08-01T12:25:33.696Z,6.40
2022-08-01T12:28:06.426Z,8.68
2022-08-01T12:30:38.180Z,8.05
2022-08-01T12:33:07.244Z,7.40
2022-08-01T12:35:35.517Z,8.18
2022-08-01T12:38:08.949Z,6.03
2022-08-01T12:40:45.047Z,4.70
2022-08-01T12:43:27.103Z,5.43
2022-08-01T12:45:57.885Z,7.18
2022-08-01T12:48:26.081Z,9.13
2022-08-01T12:50:53.823Z,6.55
2022-08-01T12:53:21.934Z,5.20
2022-08-01T12:55:59.295Z,4.32
2022-08-01T12:58:34.169Z,5.38
2022-08-01T13:01:12.376Z,4.50
2022-08-01T13:03:39.721Z,3.78
2022-08-01T13:06:28.968Z,3.67
2022-08-01T13:08:55.945Z,6.68
2022-08-01T13:11:22.801Z,2.72
2022-08-01T13:13:53.695Z,4.00
2022-08-01T13:16:30.962Z,3.70
2022-08-01T13:19:05.791Z,3.70
2022-08-01T13:21:53.117Z,6.50
2022-08-01T13:24:27.269Z,3.50
2022-08-01T13:26:58.582Z,5.30
2022-08-01T13:29:42.181Z,4.63
2022-08-01T13:32:28.465Z,4.40
2022-08-01T13:35:08.162Z,2.92
2022-08-01T13:37:38.625Z,3.53
2022-08-01T13:40:10.116Z,3.90
2022-08-01T13:42:37.116Z,3.08
2022-08-01T13:45:14.384Z,3.38
2022-08-01T13:47:44.830Z,2.60
2022-08-01T13:50:29.719Z,3.80
2022-08-01T13:52:56.454Z,4.93
2022-08-01T13:55:23.176Z,3.88
2022-08-01T13:57:51.057Z,2.50
2022-08-01T14:00:17.948Z,3.20
2022-08-01T14:02:44.795Z,4.03
2022-08-01T14:05:12.183Z,2.05
2022-08-01T14:07:39.045Z,2.03
2022-08-01T14:10:19.655Z,4.63
2022-08-01T14:12:47.647Z,4.35
2022-08-01T14:15:14.875Z,4.85
2022-08-01T14:18:01.654Z,2.72
2022-08-01T14:20:28.510Z,4.78
2022-08-01T14:22:55.262Z,3.30
2022-08-01T14:25:24.034Z,3.80
2022-08-01T14:28:09.049Z,4.93
2022-08-01T14:30:36.058Z,5.30
2022-08-01T14:33:02.841Z,5.22
2022-08-01T14:35:29.857Z,4.03
2022-08-01T14:38:25.304Z,2.75
2022-08-01T14:40:59.000Z,4.47
2022-08-01T14:43:32.470Z,6.00
2022-08-01T14:46:04.842Z,3.67
2022-08-01T14:48:32.084Z,2.25
2022-08-01T14:51:03.400Z,2.63
2022-08-01T14:53:30.296Z,3.75
2022-08-01T14:55:57.090Z,2.13
2022-08-01T14:58:23.860Z,3.05
2022-08-01T15:00:52.409Z,3.50
2022-08-01T15:03:22.466Z,5.07
2022-08-01T15:05:49.287Z,4.70
2022-08-01T15:08:16.080Z,4.53
2022-08-01T15:10:42.815Z,2.60
2022-08-01T15:13:10.317Z,4.10
2022-08-01T15:15:37.137Z,3.47
2022-08-01T15:18:03.943Z,3.28
2022-08-01T15:20:31.118Z,2.58
2022-08-01T15:22:57.884Z,3.05
2022-08-01T15:25:24.597Z,4.78
2022-08-01T15:27:51.501Z,6.20
2022-08-01T15:30:23.704Z,3.22
2022-08-01T15:32:54.152Z,2.85
2022-08-01T15:35:20.975Z,4.55
2022-08-01T15:37:47.795Z,2.05
2022-08-01T15:40:14.613Z,1.83
2022-08-01T15:42:41.333Z,3.13
2022-08-01T15:45:20.636Z,4.88
2022-08-01T15:47:56.016Z,2.03
2022-08-01T15:50:23.011Z,4.22
2022-08-01T15:52:49.721Z,6.80
2022-08-01T15:55:16.431Z,3.42
2022-08-01T15:57:43.174Z,4.60
2022-08-01T16:00:10.927Z,2.80
2022-08-01T16:02:37.677Z,4.60
2022-08-01T16:05:05.169Z,2.17
2022-08-01T16:07:32.163Z,2.67
2022-08-01T16:09:58.857Z,6.07
2022-08-01T16:12:25.598Z,4.63
2022-08-01T16:14:52.292Z,3.25
2022-08-01T16:17:19.052Z,3.38
2022-08-01T16:19:45.836Z,1.20
2022-08-01T16:22:12.618Z,4.47
2022-08-01T16:24:39.361Z,2.50
2022-08-01T16:27:06.366Z,2.90
2022-08-01T16:29:34.209Z,2.72
2022-08-01T16:32:09.079Z,4.13
2022-08-01T16:34:41.442Z,6.38
2022-08-01T16:37:13.566Z,2.47
2022-08-01T16:39:40.312Z,2.80
2022-08-01T16:42:08.536Z,2.70
2022-08-01T16:44:35.396Z,1.83
2022-08-01T16:47:05.914Z,4.63
2022-08-01T16:49:33.178Z,4.53
2022-08-01T16:52:00.074Z,2.33
2022-08-01T16:54:27.720Z,2.97
2022-08-01T16:56:56.106Z,3.03
2022-08-01T16:59:25.018Z,1.35
2022-08-01T17:02:00.026Z,1.02
2022-08-01T17:04:30.177Z,2.28
2022-08-01T17:06:57.444Z,2.15
2022-08-01T17:09:24.334Z,1.15
2022-08-01T17:11:51.464Z,2.65
2022-08-01T17:14:18.723Z,2.33
2022-08-01T17:16:45.588Z,3.08
2022-08-01T17:19:12.356Z,2.30
2022-08-01T17:21:42.064Z,2.13
2022-08-01T17:24:09.333Z,3.03
2022-08-01T17:26:36.087Z,2.78
2022-08-01T17:29:02.843Z,3.42
2022-08-01T17:31:29.532Z,1.45
2022-08-01T17:33:56.399Z,2.30
2022-08-01T17:36:23.185Z,5.10
2022-08-01T17:38:49.958Z,2.78
2022-08-01T17:41:16.764Z,3.05
2022-08-01T17:43:43.469Z,2.78
2022-08-01T17:46:10.331Z,2.42
2022-08-01T17:48:37.197Z,5.10
2022-08-01T17:51:04.090Z,2.90
2022-08-01T17:53:30.915Z,6.57
2022-08-01T17:55:58.889Z,5.00
2022-08-01T17:58:48.997Z,2.20
2022-08-01T18:01:16.136Z,4.22
2022-08-01T18:03:43.336Z,4.03
2022-08-01T18:06:13.767Z,2.60
2022-08-01T18:08:42.003Z,2.78
2022-08-01T18:11:09.584Z,3.78
2022-08-01T18:13:40.902Z,5.53
2022-08-01T18:16:09.266Z,5.35
2022-08-01T18:18:36.572Z,5.38
2022-08-01T18:21:03.720Z,3.72
2022-08-01T18:23:30.721Z,3.92
2022-08-01T18:26:01.331Z,4.65
2022-08-01T18:28:35.354Z,4.18
2022-08-01T18:31:03.787Z,4.95
2022-08-01T18:33:30.663Z,3.67
2022-08-01T18:36:03.927Z,4.25
2022-08-01T18:38:33.201Z,3.25
2022-08-01T18:41:01.333Z,4.05
2022-08-01T18:43:28.452Z,3.67
2022-08-01T18:45:57.264Z,3.17
2022-08-01T18:48:24.495Z,3.28
2022-08-01T18:50:51.525Z,6.90
2022-08-01T18:53:18.864Z,2.92
2022-08-01T18:55:45.681Z,1.88
2022-08-01T18:58:12.386Z,4.03
2022-08-01T19:00:40.016Z,2.10
2022-08-01T19:03:07.830Z,4.90
2022-08-01T19:05:35.998Z,4.80
2022-08-01T19:08:06.637Z,7.13
2022-08-01T19:10:39.577Z,4.40
2022-08-01T19:13:08.183Z,5.43
2022-08-01T19:15:35.496Z,5.20
2022-08-01T19:18:03.187Z,6.20
2022-08-01T19:20:30.540Z,3.38
2022-08-01T19:22:57.626Z,4.80
2022-08-01T19:25:24.469Z,3.40
2022-08-01T19:27:51.876Z,4.28
2022-08-01T19:30:19.224Z,6.93
2022-08-01T19:32:47.430Z,4.50
2022-08-01T19:35:16.800Z,6.15
2022-08-01T19:37:46.040Z,4.78
2022-08-01T19:40:27.209Z,4.03
2022-08-01T19:42:57.038Z,5.90
2022-08-01T19:45:28.115Z,6.75
2022-08-01T19:47:57.271Z,5.35
2022-08-01T19:50:26.434Z,5.75
2022-08-01T19:52:55.685Z,2.88
2022-08-01T19:55:24.866Z,3.33
2022-08-01T19:58:24.411Z,5.57
2022-08-01T20:00:40.364Z,5.65
2022-08-01T20:03:09.030Z,2.63
2022-08-01T20:05:37.336Z,5.85
2022-08-01T20:08:06.703Z,3.53
2022-08-01T20:10:37.546Z,3.10
2022-08-01T20:13:05.375Z,3.88
2022-08-01T20:15:32.374Z,2.90
2022-08-01T20:17:59.832Z,3.72
2022-08-01T20:20:27.454Z,4.32
2022-08-01T20:22:57.229Z,6.28
2022-08-01T20:25:32.049Z,5.47
2022-08-01T20:28:06.962Z,2.90
2022-08-01T20:30:33.841Z,3.70
2022-08-01T20:33:00.551Z,4.50
2022-08-01T20:35:52.410Z,6.55
2022-08-01T20:38:17.511Z,2.60
2022-08-01T20:40:45.616Z,3.67
2022-08-01T20:43:13.841Z,4.93
2022-08-01T20:45:42.398Z,4.28
2022-08-01T20:48:11.910Z,4.47
2022-08-01T20:50:57.502Z,5.00
2022-08-01T20:53:24.533Z,3.57
2022-08-01T20:55:59.933Z,6.50
2022-08-01T20:58:45.917Z,5.47
2022-08-01T21:01:17.683Z,3.10
2022-08-01T21:04:16.488Z,4.30
2022-08-01T21:06:49.622Z,5.60
2022-08-01T21:09:22.908Z,3.80
2022-08-01T21:11:55.955Z,4.57
2022-08-01T21:14:30.471Z,5.43
2022-08-01T21:17:01.409Z,4.33
2022-08-01T21:19:30.160Z,3.77
2022-08-01T21:22:09.599Z,5.47
2022-08-01T21:24:45.548Z,5.70
2022-08-01T21:27:33.691Z,2.50
2022-08-01T21:30:06.225Z,3.03
2022-08-01T21:32:34.918Z,7.73
2022-08-01T21:35:04.791Z,4.20
2022-08-01T21:37:31.976Z,3.43
2022-08-01T21:40:09.665Z,5.60
2022-08-01T21:42:38.568Z,3.83
2022-08-01T21:45:08.019Z,2.70
2022-08-01T21:47:35.814Z,4.13
2022-08-01T21:50:03.521Z,3.23
2022-08-01T21:52:45.158Z,8.43
2022-08-01T21:55:37.007Z,3.57
2022-08-01T21:58:17.595Z,3.70
2022-08-01T22:00:51.024Z,3.30
2022-08-01T22:03:23.600Z,3.97
2022-08-01T22:05:54.652Z,4.37
2022-08-01T22:08:35.675Z,5.87
2022-08-01T22:11:13.312Z,3.03
2022-08-01T22:13:42.010Z,3.33
2022-08-01T22:16:11.793Z,3.93
2022-08-01T22:18:38.711Z,3.53
2022-08-01T22:21:05.460Z,10.30
2022-08-01T22:23:36.892Z,3.17
2022-08-01T22:26:07.946Z,5.00
2022-08-01T22:28:36.208Z,6.07
2022-08-01T22:31:04.336Z,4.87
2022-08-01T22:33:33.917Z,4.70
2022-08-01T22:36:01.294Z,3.07
2022-08-01T22:38:28.120Z,2.93
2022-08-01T22:41:03.761Z,5.77
2022-08-01T22:43:47.156Z,5.33
2022-08-01T22:46:37.089Z,4.50
2022-08-01T22:49:26.476Z,3.47
2022-08-01T22:52:16.463Z,3.43
2022-08-01T22:54:49.998Z,5.50
2022-08-01T22:57:31.322Z,4.33
2022-08-01T23:00:00.473Z,5.90
2022-08-01T23:02:30.751Z,3.77
2022-08-01T23:05:04.412Z,6.63
2022-08-01T23:07:38.873Z,4.57
2022-08-01T23:10:07.563Z,5.97
2022-08-01T23:12:34.416Z,5.53
2022-08-01T23:15:01.604Z,2.73
2022-08-01T23:17:30.460Z,5.17
2022-08-01T23:20:00.651Z,4.83
2022-08-01T23:22:33.318Z,5.07
2022-08-01T23:25:04.128Z,4.77
2022-08-01T23:27:51.435Z,3.67
2022-08-01T23:30:28.593Z,5.17
2022-08-01T23:32:55.806Z,4.70
2022-08-01T23:35:23.641Z,5.63
2022-08-01T23:37:51.325Z,6.10
2022-08-01T23:40:18.838Z,5.10
2022-08-01T23:42:45.854Z,4.77
2022-08-01T23:45:12.618Z,5.73
2022-08-01T23:47:39.505Z,5.30
2022-08-01T23:50:07.893Z,5.57
2022-08-01T23:52:34.789Z,5.80
2022-08-01T23:55:15.110Z,7.83
2022-08-01T23:57:42.464Z,7.07
